Terminal Aerodrome Forecast
Issued by NWS

Home | Current Version | Previous Version | Text Only | Print | Product List | Glossary On
Versions: 1 2 3 4 5 6 7 8 9 10 11 12 13 14 15 16 17 18 19 20 21 22 23 24 25 26 27
539
FTUS43 KLOT 272320
TAFMDW
TAF
KMDW 272320Z 2800/2824 14008KT P6SM SCT070 OVC250
     FM280100 14008KT P6SM BKN080 OVC250
     FM280700 16010KT 4SM -SHRA SCT015 BKN025
     FM281100 17011KT 4SM -RADZ BR OVC007
     FM281500 19012G17KT P6SM SCT008 BKN015
     FM282000 19013G20KT P6SM VCSH BKN020 PROB30 2822/2824 4SM -TSRA
      BKN015CB=

USA.gov is the U.S. government's official web portal to all federal, state and local government web resources and services.